Data for 02/14/2006

Time Sea-Level Adjusted Pressure Absolute Pressure Temperature Relative Humidity Dew Point   
(mb) (inHg) (mb) (inHg) (C) (F) (%) (C) (F)
00:05 1011 29.85 840 24.81 -0.1 31.9 87 -2 28.4
00:10 1011 29.85 840 24.81 -0.1 31.9 87 -2 28.4
00:15 1011 29.85 840 24.81 -0.1 31.9 87 -1.9 28.5
00:20 1011 29.85 840 24.81 -0.1 31.9 86 -2.1 28.3
00:25 1011 29.85 840 24.81 -0 32 85 -2.3 27.8
00:30 1011 29.85 840 24.81 0.1 32.2 84 -2.2 28
00:35 1011 29.85 840 24.81 0.1 32.2 84 -2.3 27.8
00:40 1011 29.85 840 24.81 0.2 32.3 83 -2.4 27.7
00:45 1011 29.85 840 24.81 0.2 32.3 83 -2.4 27.6
00:50 1011 29.85 841 24.83 0.2 32.3 86 -1.9 28.6
00:55 1012 29.88 841 24.83 -0.2 31.6 90 -1.6 29
01:00 1012 29.88 841 24.83 -0.6 30.9 92 -1.7 28.9
01:05 1012 29.88 841 24.83 -0.8 30.5 92 -1.9 28.6
01:10 1012 29.88 841 24.83 -0.8 30.6 92 -1.9 28.6
01:15 1012 29.88 841 24.83 -0.8 30.6 93 -1.8 28.8
01:20 1012 29.88 841 24.83 -0.8 30.5 93 -1.8 28.7
01:25 1012 29.88 841 24.83 -0.8 30.6 93 -1.7 28.9
01:30 1012 29.88 841 24.83 -0.8 30.6 94 -1.6 29.1
01:35 1012 29.88 841 24.83 -0.8 30.5 95 -1.5 29.3
01:40 1012 29.88 841 24.83 -1 30.2 95 -1.7 29
01:45 1012 29.88 841 24.83 -1.2 29.8 96 -1.8 28.7
01:50 1012 29.88 841 24.83 -1.3 29.6 97 -1.8 28.8
01:55 1012 29.88 841 24.83 -1.4 29.5 97 -1.8 28.8
02:00 1012 29.88 841 24.83 -1.5 29.3 97 -1.8 28.7
02:05 1012 29.88 841 24.83 -1.6 29.1 97 -2 28.5
02:10 1012 29.88 841 24.83 -1.7 28.9 97 -2.1 28.3
02:15 1012 29.88 841 24.83 -1.8 28.8 98 -2.1 28.2
02:20 1012 29.88 841 24.83 -1.8 28.7 98 -2.1 28.1
02:25 1012 29.88 841 24.83 -1.9 28.6 97 -2.3 27.9
02:30 1012 29.88 841 24.83 -1.9 28.5 96 -2.4 27.6
02:35 1012 29.88 841 24.83 -1.9 28.5 94 -2.8 27
02:40 1012 29.88 841 24.83 -1.9 28.7 91 -3.2 26.3
02:45 1012 29.88 841 24.83 -1.8 28.7 88 -3.5 25.7
02:50 1012 29.88 841 24.83 -1.8 28.7 86 -3.9 25
02:55 1012 29.88 841 24.83 -1.7 29 82 -4.3 24.2
03:00 1012 29.88 841 24.83 -1.5 29.3 78 -4.9 23.3
03:05 1012 29.88 841 24.83 -1.4 29.5 77 -4.9 23.2
03:10 1012 29.88 841 24.83 -1.5 29.4 77 -5 23.1
03:15 1012 29.88 841 24.83 -1.6 29.2 78 -5 23.1
03:20 1012 29.88 841 24.83 -1.5 29.3 77 -5.1 22.9
03:25 1011 29.85 841 24.83 -1.4 29.5 77 -4.9 23.1
03:30 1011 29.85 841 24.83 -1.4 29.5 77 -5 23.1
03:35 1011 29.85 841 24.83 -1.5 29.4 78 -4.9 23.2
03:40 1011 29.85 841 24.83 -1.5 29.3 78 -4.9 23.1
03:45 1011 29.85 841 24.83 -1.5 29.4 77 -4.9 23.1
03:50 1011 29.85 841 24.83 -1.4 29.4 76 -5.1 22.9
03:55 1011 29.85 841 24.83 -1.3 29.7 75 -5.1 22.8
04:00 1011 29.85 841 24.83 -1.2 29.8 74 -5.2 22.6
04:05 1011 29.85 841 24.83 -1.1 30 73 -5.3 22.4
04:10 1011 29.85 841 24.83 -1.1 30 73 -5.4 22.2
04:15 1012 29.88 841 24.83 -1 30.1 71 -5.7 21.7
04:20 1012 29.88 841 24.83 -1 30.1 73 -5.3 22.5
04:25 1012 29.88 841 24.83 -1.3 29.7 77 -4.9 23.2
04:30 1012 29.88 841 24.83 -1.5 29.3 76 -5.2 22.6
04:35 1012 29.88 841 24.83 -1.6 29.1 73 -5.9 21.4
04:40 1012 29.88 841 24.83 -1.6 29.1 71 -6.1 21
04:45 1012 29.88 841 24.83 -1.9 28.7 71 -6.4 20.4
04:50 1012 29.88 841 24.83 -2 28.4 68 -7.2 19
04:55 1012 29.88 841 24.83 -2.2 28 66 -7.6 18.2
05:00 1012 29.88 841 24.83 -2.4 27.7 66 -7.8 17.9
05:05 1012 29.88 842 24.86 -2.6 27.2 67 -7.9 17.7
05:10 1012 29.88 842 24.86 -3 26.6 67 -8.4 16.9
05:15 1012 29.88 842 24.86 -3.2 26.2 66 -8.7 16.3
05:20 1013 29.91 842 24.86 -3.2 26.2 66 -8.8 16.2
05:25 1013 29.91 842 24.86 -3.2 26.2 64 -9.1 15.7
05:30 1013 29.91 842 24.86 -3.3 26.1 61 -9.9 14.3
05:35 1013 29.91 842 24.86 -3.4 25.9 58 -10.5 13.1
05:40 1013 29.91 842 24.86 -3.5 25.7 58 -10.5 13
05:45 1013 29.91 842 24.86 -3.6 25.5 58 -10.7 12.8
05:50 1013 29.91 842 24.86 -3.8 25.2 59 -10.7 12.8
05:55 1013 29.91 842 24.86 -3.8 25.1 59 -10.8 12.6
06:00 1013 29.91 842 24.86 -3.9 24.9 59 -10.7 12.7
06:05 1013 29.91 843 24.89 -4 24.8 60 -10.7 12.7
06:10 1014 29.94 843 24.89 -4 24.7 59 -10.9 12.4
06:15 1014 29.94 843 24.89 -4.2 24.4 58 -11.4 11.5
06:20 1014 29.94 843 24.89 -4.3 24.2 55 -12 10.3
06:25 1014 29.94 843 24.89 -4.4 24 55 -12.2 10.1
06:30 1014 29.94 844 24.92 -4.7 23.6 57 -11.9 10.6
06:35 1014 29.94 844 24.92 -4.9 23.2 56 -12.4 9.7
06:40 1014 29.94 843 24.89 -5 23 52 -13.3 8
06:45 1014 29.94 843 24.89 -5.1 22.8 53 -13.3 8
06:50 1014 29.94 844 24.92 -5.2 22.7 53 -13.3 8
06:55 1014 29.94 844 24.92 -5.4 22.3 54 -13.4 7.9
07:00 1014 29.94 844 24.92 -5.5 22.1 53 -13.6 7.5
07:05 1015 29.97 844 24.92 -5.6 21.9 54 -13.6 7.5
07:10 1015 29.97 844 24.92 -5.6 21.8 53 -13.7 7.3
07:15 1015 29.97 844 24.92 -5.6 21.9 55 -13.3 8.1
07:20 1015 29.97 844 24.92 -5.6 21.9 56 -13.1 8.4
07:25 1015 29.97 844 24.92 -5.6 21.9 56 -13.2 8.3
07:30 1015 29.97 844 24.92 -5.6 21.8 55 -13.3 8.1
07:35 1015 29.97 844 24.92 -5.6 22 55 -13.2 8.2
07:40 1015 29.97 844 24.92 -5.5 22.1 54 -13.4 7.9
07:45 1015 29.97 844 24.92 -5.4 22.3 54 -13.3 8.1
07:50 1015 29.97 844 24.92 -5.4 22.2 52 -13.8 7.2
07:55 1015 29.97 844 24.92 -5.6 22 53 -13.7 7.4
08:00 1015 29.97 845 24.95 -5.7 21.8 54 -13.6 7.6
08:05 1015 29.97 845 24.95 -5.8 21.6 53 -13.9 7.1
08:10 1015 29.97 845 24.95 -5.7 21.7 52 -14 6.7
08:15 1016 30 845 24.95 -5.5 22 51 -14.1 6.6
08:20 1016 30 845 24.95 -5.4 22.3 51 -14 6.8
08:25 1016 30 845 24.95 -5.4 22.3 51 -14 6.8
08:30 1016 30 845 24.95 -5.3 22.4 50 -14.3 6.3
08:35 1016 30 845 24.95 -5.4 22.4 49 -14.4 6.1
08:40 1016 30 845 24.95 -5.3 22.5 50 -14.3 6.3
08:45 1016 30 845 24.95 -5.3 22.4 49 -14.5 5.8
08:50 1016 30 845 24.95 -5.3 22.4 50 -14.3 6.3
08:55 1016 30 845 24.95 -5.3 22.4 50 -14.2 6.4
09:00 1016 30 845 24.95 -5.2 22.6 51 -14 6.8
09:05 1016 30 845 24.95 -5.2 22.6 51 -13.9 7
09:10 1016 30 845 24.95 -5.2 22.6 52 -13.6 7.5
09:15 1016 30 845 24.95 -5.1 22.8 51 -13.7 7.4
09:20 1016 30 845 24.95 -5 23.1 51 -13.6 7.5
09:25 1016 30 845 24.95 -4.9 23.1 51 -13.6 7.6
09:30 1016 30 845 24.95 -4.8 23.4 52 -13.2 8.3
09:35 1016 30 845 24.95 -4.6 23.6 53 -12.8 8.9
09:40 1016 30 845 24.95 -4.7 23.6 55 -12.5 9.6
09:45 1016 30 845 24.95 -4.5 24 54 -12.5 9.5
09:50 1016 30 845 24.95 -4.4 24.1 54 -12.4 9.7
09:55 1016 30 845 24.95 -4.3 24.3 54 -12.3 9.9
10:00 1016 30 845 24.95 -4.1 24.7 54 -12 10.4
10:05 1016 30 845 24.95 -4 24.8 56 -11.6 11.2
10:10 1016 30 845 24.95 -4.1 24.7 56 -11.7 10.9
10:15 1016 30 845 24.95 -4 24.9 56 -11.6 11.2
10:20 1016 30 846 24.98 -3.5 25.8 54 -11.6 11.1
10:25 1016 30 845 24.95 -2.9 26.9 51 -11.5 11.2
10:30 1016 30 845 24.95 -3 26.5 53 -11.4 11.5
10:35 1016 30 845 24.95 -3.2 26.3 54 -11.2 11.8
10:40 1016 30 845 24.95 -3 26.6 55 -10.9 12.4
10:45 1016 30 845 24.95 -3.1 26.5 57 -10.4 13.4
10:50 1016 30 845 24.95 -3.2 26.2 59 -10.2 13.7
10:55 1016 30 845 24.95 -3.1 26.4 58 -10.3 13.4
11:00 1016 30 845 24.95 -2.6 27.3 54 -10.6 12.9
11:05 1016 30 845 24.95 -2.2 28.1 51 -11 12.1
11:10 1016 30 845 24.95 -2 28.5 53 -10.3 13.4
11:15 1016 30 845 24.95 -1.2 29.8 48 -11 12.3
11:20 1016 30 845 24.95 -1 30.1 49 -10.5 13.1
11:25 1016 30 845 24.95 -1.5 29.3 48 -11.1 12
11:30 1016 30 845 24.95 -1.1 30 47 -11 12.3
11:35 1016 30 845 24.95 -3 26.7 55 -10.9 12.4
11:40 1016 30 845 24.95 -4.4 24.2 57 -11.8 10.8
11:45 1016 30 845 24.95 -4.3 24.2 57 -11.7 10.9
11:50 1016 30 845 24.95 -4.7 23.6 58 -11.7 10.9
11:55 1016 30 845 24.95 -4.6 23.7 56 -12.2 10
12:00 1016 30 845 24.95 -4.4 24.1 55 -12.2 10
12:05 1016 30 845 24.95 -4 24.9 52 -12.3 9.8
12:10 1016 30 845 24.95 -3.9 25 56 -11.5 11.3
12:15 1016 30 845 24.95 -4.3 24.3 56 -11.8 10.8
12:20 1016 30 845 24.95 -4.1 24.6 57 -11.5 11.3
12:25 1016 30 845 24.95 -4 24.8 57 -11.3 11.6
12:30 1016 30 845 24.95 -3.7 25.3 57 -11.1 12
12:35 1016 30 845 24.95 -3.4 25.8 54 -11.4 11.5
12:40 1015 29.97 845 24.95 -3.2 26.2 52 -11.8 10.8
12:45 1015 29.97 845 24.95 -3.2 26.2 51 -11.9 10.6
12:50 1015 29.97 845 24.95 -3.4 25.9 50 -12.3 9.9
12:55 1015 29.97 845 24.95 -3.1 26.5 50 -12 10.5
13:00 1015 29.97 845 24.95 -2.8 26.9 50 -11.8 10.8
13:05 1015 29.97 845 24.95 -3 26.6 50 -12 10.3
13:10 1015 29.97 844 24.92 -3.3 26 50 -12.4 9.6
13:15 1015 29.97 844 24.92 -3.5 25.7 49 -12.8 8.9
13:20 1015 29.97 844 24.92 -3.3 26.1 48 -12.9 8.8
13:25 1015 29.97 844 24.92 -3.4 25.8 49 -12.7 9.1
13:30 1015 29.97 844 24.92 -3.6 25.5 49 -13 8.6
13:35 1015 29.97 844 24.92 -3.4 25.9 48 -13 8.6
13:40 1015 29.97 844 24.92 -3.3 26.1 47 -13.1 8.4
13:45 1015 29.97 844 24.92 -3 26.6 47 -12.8 9
13:50 1015 29.97 844 24.92 -1.9 28.5 46 -12.2 10.1
13:55 1015 29.97 844 24.92 -1.6 29.2 44 -12.2 10
14:00 1015 29.97 844 24.92 -1.4 29.4 45 -12 10.5
14:05 1015 29.97 844 24.92 -1 30.2 43 -12 10.4
14:10 1015 29.97 844 24.92 -0.8 30.5 40 -12.9 8.7
14:15 1015 29.97 844 24.92 -0.8 30.6 41 -12.4 9.7
14:20 1015 29.97 844 24.92 -0.8 30.6 41 -12.6 9.4
14:25 1015 29.97 844 24.92 -0.6 30.9 40 -12.5 9.4
14:30 1015 29.97 844 24.92 -0.6 30.9 41 -12.2 10
14:35 1015 29.97 844 24.92 -0.8 30.6 41 -12.6 9.4
14:40 1015 29.97 844 24.92 -0.4 31.2 40 -12.4 9.6
14:45 1015 29.97 844 24.92 -0.3 31.4 41 -12 10.5
14:50 1015 29.97 844 24.92 -1.6 29.2 46 -11.6 11.1
14:55 1015 29.97 844 24.92 -3.1 26.5 55 -10.8 12.6
15:00 1015 29.97 844 24.92 -3.3 26.1 59 -10.1 13.8
15:05 1015 29.97 844 24.92 -3.6 25.4 62 -9.9 14.2
15:10 1015 29.97 844 24.92 -3.4 26 59 -10.3 13.5
15:15 1015 29.97 844 24.92 -2.7 27.2 55 -10.5 13.1
15:20 1015 29.97 844 24.92 -2.9 26.7 58 -10 14
15:25 1015 29.97 844 24.92 -3.7 25.4 59 -10.5 13.1
15:30 1015 29.97 844 24.92 -3.5 25.7 59 -10.4 13.3
15:35 1015 29.97 844 24.92 -2.7 27.1 55 -10.5 13.1
15:40 1015 29.97 844 24.92 -3 26.6 57 -10.4 13.4
15:45 1015 29.97 844 24.92 -2.4 27.8 59 -9.2 15.4
15:50 1015 29.97 844 24.92 -2.2 28 60 -8.9 16
15:55 1015 29.97 844 24.92 -2.3 27.9 59 -9.2 15.5
16:00 1015 29.97 844 24.92 -2 28.4 56 -9.7 14.5
16:05 1015 29.97 844 24.92 -1.9 28.7 52 -10.3 13.4
16:10 1015 29.97 844 24.92 -1.8 28.7 53 -10.3 13.5
16:15 1015 29.97 844 24.92 -1.8 28.8 52 -10.4 13.3
16:20 1015 29.97 844 24.92 -1.6 29.1 53 -10 14
16:25 1015 29.97 844 24.92 -1.7 29 52 -10.4 13.3
16:30 1015 29.97 844 24.92 -1.7 29 50 -10.8 12.6
16:35 1015 29.97 844 24.92 -1.9 28.6 50 -10.9 12.3
16:40 1015 29.97 844 24.92 -2.8 27 55 -10.6 12.9
16:45 1015 29.97 844 24.92 -3 26.6 55 -10.8 12.6
16:50 1015 29.97 844 24.92 -3 26.5 55 -10.9 12.5
16:55 1015 29.97 844 24.92 -3.3 26 56 -10.9 12.4
17:00 1015 29.97 844 24.92 -3.4 25.8 56 -11 12.3
17:05 1015 29.97 844 24.92 -3.4 25.9 59 -10.4 13.3
17:10 1015 29.97 844 24.92 -3.6 25.6 59 -10.5 13
17:15 1015 29.97 844 24.92 -3.9 25 61 -10.4 13.3
17:20 1015 29.97 844 24.92 -3.7 25.3 60 -10.5 13.1
17:25 1015 29.97 844 24.92 -3.7 25.4 62 -10 13.9
17:30 1015 29.97 844 24.92 -4.4 24.1 65 -9.9 14.2
17:35 1015 29.97 844 24.92 -5 23.1 67 -10.2 13.6
17:40 1015 29.97 844 24.92 -5.2 22.6 69 -10 13.9
17:45 1015 29.97 844 24.92 -5.8 21.6 74 -9.8 14.4
17:50 1015 29.97 844 24.92 -6.5 20.4 76 -10 14
17:55 1015 29.97 844 24.92 -6.5 20.3 76 -10 14
18:00 1015 29.97 844 24.92 -6.1 21 75 -9.8 14.4
18:05 1015 29.97 844 24.92 -6.2 20.8 76 -9.7 14.5
18:10 1015 29.97 844 24.92 -6.4 20.6 73 -10.4 13.3
18:15 1015 29.97 844 24.92 -6.5 20.3 73 -10.5 13
18:20 1015 29.97 845 24.95 -6.6 20.2 74 -10.5 13.1
18:25 1015 29.97 844 24.92 -6.6 20 73 -10.6 12.9
18:30 1015 29.97 845 24.95 -6.6 20.1 74 -10.6 12.9
18:35 1015 29.97 845 24.95 -6.8 19.8 74 -10.6 12.9
18:40 1015 29.97 845 24.95 -6.9 19.5 75 -10.7 12.7
18:45 1015 29.97 844 24.92 -6.8 19.7 74 -10.7 12.7
18:50 1015 29.97 845 24.95 -6.9 19.6 72 -11.1 12.1
18:55 1015 29.97 845 24.95 -6.9 19.6 73 -10.9 12.4
19:00 1015 29.97 845 24.95 -7 19.4 74 -10.9 12.3
19:05 1015 29.97 845 24.95 -7 19.5 72 -11.1 12
19:10 1015 29.97 845 24.95 -7 19.5 70 -11.5 11.3
19:15 1015 29.97 845 24.95 -6.9 19.6 67 -12 10.4
19:20 1015 29.97 844 24.92 -6.8 19.7 66 -12.1 10.1
19:25 1015 29.97 844 24.92 -6.8 19.7 65 -12.3 9.9
19:30 1015 29.97 844 24.92 -6.9 19.6 64 -12.6 9.2
19:35 1015 29.97 844 24.92 -7 19.5 66 -12.3 9.9
19:40 1015 29.97 845 24.95 -7.1 19.3 65 -12.6 9.4
19:45 1015 29.97 844 24.92 -7.1 19.2 65 -12.6 9.3
19:50 1015 29.97 844 24.92 -7.1 19.2 65 -12.6 9.4
19:55 1015 29.97 844 24.92 -7.2 19.1 65 -12.7 9.1
20:00 1015 29.97 844 24.92 -7.2 19.1 64 -12.8 9
20:05 1015 29.97 845 24.95 -7.4 18.8 65 -12.8 9
20:10 1015 29.97 844 24.92 -7.4 18.6 66 -12.8 9
20:15 1015 29.97 845 24.95 -7.5 18.6 65 -12.9 8.7
20:20 1015 29.97 845 24.95 -7.5 18.5 64 -13.1 8.3
20:25 1015 29.97 845 24.95 -7.5 18.5 64 -13.1 8.4
20:30 1015 29.97 845 24.95 -7.4 18.6 64 -13.2 8.2
20:35 1015 29.97 845 24.95 -7.4 18.6 63 -13.4 7.9
20:40 1015 29.97 844 24.92 -7.5 18.6 62 -13.5 7.6
20:45 1015 29.97 845 24.95 -7.5 18.6 62 -13.5 7.7
20:50 1015 29.97 845 24.95 -7.5 18.5 62 -13.6 7.6
20:55 1015 29.97 844 24.92 -7.5 18.6 63 -13.3 8.1
21:00 1015 29.97 844 24.92 -7.6 18.3 70 -12.2 10
21:05 1015 29.97 845 24.95 -7.8 18 74 -11.6 11.1
21:10 1015 29.97 845 24.95 -7.9 17.8 75 -11.6 11.2
21:15 1015 29.97 845 24.95 -8 17.5 76 -11.6 11.1
21:20 1016 30 845 24.95 -8.1 17.4 76 -11.6 11.1
21:25 1015 29.97 845 24.95 -8.3 17.2 76 -11.7 11
21:30 1015 29.97 845 24.95 -8.3 17 77 -11.7 10.9
21:35 1016 30 845 24.95 -8.4 16.9 76 -11.9 10.6
21:40 1016 30 845 24.95 -8.5 16.8 76 -12 10.4
21:45 1016 30 845 24.95 -8.5 16.7 76 -12 10.3
21:50 1016 30 845 24.95 -8.5 16.8 76 -12 10.4
21:55 1016 30 845 24.95 -8.5 16.8 75 -12.1 10.3
22:00 1016 30 845 24.95 -8.6 16.5 76 -12.2 10.1
22:05 1016 30 845 24.95 -8.7 16.4 75 -12.3 9.9
22:10 1016 30 845 24.95 -8.7 16.3 75 -12.4 9.7
22:15 1016 30 845 24.95 -8.8 16.1 76 -12.4 9.7
22:20 1016 30 845 24.95 -8.9 16 76 -12.4 9.7
22:25 1016 30 845 24.95 -9 15.9 78 -12.2 10
22:30 1016 30 845 24.95 -9.1 15.5 78 -12.3 9.8
22:35 1016 30 845 24.95 -9.1 15.6 77 -12.4 9.7
22:40 1016 30 845 24.95 -9 15.9 77 -12.4 9.7
22:45 1016 30 845 24.95 -8.9 15.9 77 -12.3 9.8
22:50 1016 30 845 24.95 -9 15.8 77 -12.3 9.8
22:55 1016 30 845 24.95 -9 15.7 77 -12.4 9.7
23:00 1016 30 845 24.95 -9.1 15.7 78 -12.3 9.9
23:05 1016 30 845 24.95 -9.3 15.3 78 -12.4 9.7
23:10 1016 30 845 24.95 -9.3 15.3 77 -12.7 9.2
23:15 1016 30 845 24.95 -9.3 15.3 77 -12.6 9.4
23:20 1016 30 845 24.95 -9.2 15.5 76 -12.7 9.2
23:25 1015 29.97 845 24.95 -9 15.7 74 -12.8 8.9
23:30 1016 30 845 24.95 -9.1 15.7 75 -12.8 9
23:35 1016 30 845 24.95 -9.1 15.7 75 -12.8 9
23:40 1016 30 845 24.95 -9.2 15.5 75 -12.8 8.9
23:45 1016 30 845 24.95 -9.2 15.5 71 -13.5 7.7
23:50 1016 30 845 24.95 -9.2 15.5 70 -13.7 7.3
23:55 1016 30 845 24.95 -9.5 14.9 74 -13.3 8
24:00 1016 30 845 24.95 -9.7 14.5 74 -13.5 7.7